Time;durP1;ratioP1;P1;durP2;ratioP2;P2;SDS_P1;SDS_P2;PMS_P1;PMS_P2;Temp;Humidity;BMP_temperature;BMP_pressure;BME280_temperature;BME280_humidity;BME280_pressure;Samples;Min_cycle;Max_cycle;Signal;HPM_P1;HPM_P2
2022/10/20 00:00:24;;;;;;;0.50;0.50;;;;;;;4.10;78.76;101653.38;5108201;28;20039;-77
2022/10/20 00:02:50;;;;;;;0.50;0.50;;;;;;;4.20;78.98;101665.75;5126635;28;20023;-76
2022/10/20 00:05:15;;;;;;;0.70;0.70;;;;;;;4.13;79.06;101655.19;5126551;28;20563;-76
2022/10/20 00:07:40;;;;;;;0.50;0.50;;;;;;;4.14;79.20;101665.53;5108042;28;20053;-76
2022/10/20 00:10:06;;;;;;;0.50;0.50;;;;;;;4.08;79.09;101661.03;5107820;28;20085;-77
2022/10/20 00:12:31;;;;;;;0.50;0.50;;;;;;;4.05;79.24;101654.88;5126377;28;20047;-76
2022/10/20 00:14:57;;;;;;;2.05;1.95;;;;;;;3.99;79.41;101654.66;5126681;28;20037;-77
2022/10/20 00:17:22;;;;;;;0.50;0.50;;;;;;;4.08;79.45;101655.00;5107310;28;20020;-77
2022/10/20 00:19:48;;;;;;;0.50;0.50;;;;;;;4.04;79.76;101648.00;5126378;28;20031;-77
2022/10/20 00:22:14;;;;;;;0.50;0.50;;;;;;;4.02;79.78;101649.63;5125968;28;20048;-77
2022/10/20 00:24:39;;;;;;;0.50;0.50;;;;;;;4.03;79.71;101654.84;5107963;28;20031;-77
2022/10/20 00:27:05;;;;;;;0.50;0.50;;;;;;;3.94;79.94;101639.06;5126251;28;20533;-77
2022/10/20 00:29:30;;;;;;;0.50;0.50;;;;;;;3.95;80.28;101636.56;5126296;28;20045;-78
2022/10/20 00:31:55;;;;;;;0.60;0.60;;;;;;;3.95;80.29;101636.56;5126107;28;20023;-78
2022/10/20 00:34:21;;;;;;;1.25;1.25;;;;;;;4.03;80.42;101647.13;5125941;28;20026;-77
2022/10/20 00:36:46;;;;;;;0.50;0.50;;;;;;;3.95;80.44;101640.81;5107703;28;20482;-77
2022/10/20 00:39:11;;;;;;;0.50;0.50;;;;;;;4.02;80.32;101647.06;5107482;28;20056;-78
2022/10/20 00:41:37;;;;;;;0.50;0.50;;;;;;;4.05;80.42;101653.22;5125591;28;20023;-77
2022/10/20 00:44:41;;;;;;;0.77;0.77;;;;;;;3.99;80.56;101649.50;5107806;28;20030;-76
2022/10/20 00:47:12;;;;;;;0.50;0.50;;;;;;;3.94;80.61;101637.38;5125891;28;20090;-77
2022/10/20 00:49:38;;;;;;;0.50;0.50;;;;;;;3.91;80.89;101633.81;5126254;28;20486;-77
2022/10/20 00:52:04;;;;;;;0.50;0.50;;;;;;;3.94;80.98;101641.63;5125715;28;20047;-78
2022/10/20 00:54:30;;;;;;;0.47;0.47;;;;;;;3.95;81.18;101641.69;5107723;28;20020;-77
2022/10/20 00:56:57;;;;;;;0.50;0.50;;;;;;;4.01;81.26;101641.03;5107554;28;20479;-77
2022/10/20 00:59:27;;;;;;;0.50;0.50;;;;;;;4.04;81.53;101637.72;5125888;28;20037;-78
2022/10/20 01:01:53;;;;;;;0.50;0.50;;;;;;;4.07;81.59;101633.56;5107462;28;20064;-76
2022/10/20 01:04:18;;;;;;;0.50;0.50;;;;;;;4.12;81.58;101636.31;5107580;28;20015;-77
2022/10/20 01:06:44;;;;;;;0.50;0.50;;;;;;;4.15;81.34;101623.59;5125520;28;20393;-77
2022/10/20 01:09:10;;;;;;;0.50;0.50;;;;;;;4.16;81.30;101619.31;5107390;28;20019;-77
2022/10/20 01:11:41;;;;;;;0.50;0.50;;;;;;;4.13;81.20;101619.19;5107185;28;20038;-77
2022/10/20 01:14:18;;;;;;;0.60;0.60;;;;;;;4.02;81.17;101613.66;5125795;28;20121;-78
2022/10/20 01:17:13;;;;;;;0.50;0.50;;;;;;;4.04;81.35;101612.88;5107334;28;20024;-77
2022/10/20 01:20:13;;;;;;;0.55;0.55;;;;;;;4.16;81.58;101609.91;5115974;28;20036;-77
2022/10/20 01:22:57;;;;;;;0.52;0.52;;;;;;;4.20;81.74;101606.63;5089480;28;20040;-76
2022/10/20 01:25:44;;;;;;;0.50;0.50;;;;;;;4.25;81.72;101605.94;5107237;28;20182;-77
2022/10/20 01:28:20;;;;;;;0.40;0.40;;;;;;;4.23;81.80;101611.03;5125591;28;20023;-77
2022/10/20 01:30:51;;;;;;;0.50;0.50;;;;;;;4.14;81.59;101605.56;5129447;28;20035;-77
2022/10/20 01:33:37;;;;;;;0.60;0.60;;;;;;;4.14;81.42;101616.69;5129601;28;20050;-77
2022/10/20 01:36:12;;;;;;;0.47;0.47;;;;;;;4.08;81.43;101626.75;5110970;28;20024;-77
2022/10/20 01:38:43;;;;;;;0.50;0.50;;;;;;;4.00;81.21;101615.28;5129468;28;20069;-76
2022/10/20 01:41:31;;;;;;;0.50;0.50;;;;;;;4.07;81.48;101614.72;5110744;28;20039;-77
2022/10/20 01:44:00;;;;;;;1.13;1.13;;;;;;;4.00;81.63;101608.47;5110976;28;20087;-77
2022/10/20 01:46:26;;;;;;;0.50;0.50;;;;;;;4.05;81.85;101616.34;5129317;28;20121;-77
2022/10/20 01:48:53;;;;;;;0.43;0.43;;;;;;;4.07;82.04;101615.56;5111062;28;20027;-77
2022/10/20 01:51:18;;;;;;;1.38;1.27;;;;;;;4.05;82.13;101612.09;5110544;28;20502;-77
2022/10/20 01:53:43;;;;;;;0.50;0.50;;;;;;;4.05;82.06;101606.94;5129081;28;20015;-78
2022/10/20 01:56:19;;;;;;;0.50;0.50;;;;;;;4.08;82.06;101606.19;5110698;28;20035;-77
2022/10/20 01:58:56;;;;;;;0.50;0.50;;;;;;;4.06;81.98;101607.81;5110638;28;20034;-77
2022/10/20 02:02:13;;;;;;;0.50;0.50;;;;;;;4.03;82.30;101605.13;5128982;28;20034;-78
2022/10/20 02:04:44;;;;;;;0.50;0.50;;;;;;;4.08;82.40;101598.47;5009627;28;20105;-76
2022/10/20 02:07:22;;;;;;;0.40;0.40;;;;;;;4.04;82.55;101587.19;5009204;28;20030;-77
2022/10/20 02:09:52;;;;;;;0.50;0.50;;;;;;;4.16;82.11;101597.06;5009908;28;20053;-78
2022/10/20 02:12:28;;;;;;;0.40;0.40;;;;;;;4.12;82.27;101592.59;5025870;28;20093;-78
2022/10/20 02:15:00;;;;;;;0.50;0.50;;;;;;;4.11;82.24;101595.13;5009373;28;20054;-79
2022/10/20 02:17:27;;;;;;;0.63;0.63;;;;;;;4.01;82.36;101583.66;5025906;28;20114;-78
2022/10/20 02:19:54;;;;;;;0.50;0.50;;;;;;;4.07;82.19;101589.00;5025738;28;20029;-78
2022/10/20 02:22:21;;;;;;;0.45;0.45;;;;;;;4.05;82.57;101594.09;5025499;28;20305;-77
2022/10/20 02:24:47;;;;;;;0.50;0.50;;;;;;;4.10;82.64;101586.56;5009303;28;20033;-78
2022/10/20 02:27:21;;;;;;;0.50;0.50;;;;;;;4.18;82.89;101592.88;5025518;28;20076;-77
2022/10/20 02:29:53;;;;;;;0.50;0.50;;;;;;;4.27;83.09;101586.28;5008974;28;20116;-78
2022/10/20 02:32:20;;;;;;;0.40;0.40;;;;;;;4.40;83.27;101590.19;5025474;28;20034;-77
2022/10/20 02:34:46;;;;;;;0.50;0.50;;;;;;;4.42;83.09;101579.16;5025366;28;20094;-77
2022/10/20 02:37:12;;;;;;;0.50;0.50;;;;;;;4.54;83.17;101578.72;5008703;28;20030;-78
2022/10/20 02:39:37;;;;;;;0.50;0.50;;;;;;;4.64;82.92;101572.19;5034655;28;20031;-77
2022/10/20 02:42:03;;;;;;;0.50;0.50;;;;;;;4.65;83.10;101567.94;5109708;28;20047;-77
2022/10/20 02:44:28;;;;;;;0.50;0.50;;;;;;;4.70;82.92;101580.13;5128163;28;20030;-77
2022/10/20 02:46:53;;;;;;;0.50;0.50;;;;;;;4.69;82.93;101568.09;5109967;28;20432;-79
2022/10/20 02:49:23;;;;;;;0.50;0.50;;;;;;;4.68;82.77;101563.75;5109815;28;20030;-78
2022/10/20 02:51:49;;;;;;;0.50;0.50;;;;;;;4.73;82.73;101561.34;5127723;28;20386;-78
2022/10/20 02:54:14;;;;;;;0.50;0.50;;;;;;;4.77;82.80;101563.22;5128082;28;20016;-78
2022/10/20 02:56:40;;;;;;;0.50;0.50;;;;;;;4.78;82.74;101554.66;5109717;28;20020;-77
2022/10/20 02:59:05;;;;;;;0.40;0.40;;;;;;;4.81;82.96;101565.06;5109461;28;20023;-78
2022/10/20 03:01:30;;;;;;;0.50;0.50;;;;;;;4.89;82.37;101567.88;5109314;28;20084;-78
2022/10/20 03:03:58;;;;;;;0.43;0.43;;;;;;;4.90;82.42;101568.78;5109345;28;20042;-77
2022/10/20 03:06:24;;;;;;;0.93;0.93;;;;;;;4.87;82.84;101564.41;5127578;28;20019;-77
2022/10/20 03:08:49;;;;;;;0.40;0.40;;;;;;;4.82;82.55;101551.34;5109483;28;20026;-76
2022/10/20 03:11:15;;;;;;;0.50;0.50;;;;;;;4.81;82.37;101551.31;5127453;28;20057;-77
2022/10/20 03:13:40;;;;;;;0.40;0.40;;;;;;;4.85;82.40;101560.91;5109165;28;20500;-77
2022/10/20 03:16:06;;;;;;;0.50;0.50;;;;;;;4.77;82.32;101547.78;5127574;28;20043;-77
2022/10/20 03:18:31;;;;;;;1.15;1.15;;;;;;;4.76;82.20;101555.44;5109329;28;20027;-77
2022/10/20 03:20:56;;;;;;;0.50;0.50;;;;;;;4.77;82.35;101562.31;5108996;28;20027;-77
2022/10/20 03:23:22;;;;;;;0.50;0.50;;;;;;;4.72;82.61;101557.03;5127277;28;20040;-79
2022/10/20 03:25:47;;;;;;;0.50;0.50;;;;;;;4.80;82.34;101567.56;5109052;28;20262;-77
2022/10/20 03:28:13;;;;;;;0.50;0.50;;;;;;;4.77;82.70;101559.75;5126091;28;20052;-78
2022/10/20 03:30:39;;;;;;;0.50;0.50;;;;;;;4.77;82.60;101564.91;5125899;28;20083;-78
2022/10/20 03:33:04;;;;;;;0.45;0.45;;;;;;;4.81;82.65;101570.19;5126952;28;20024;-76
2022/10/20 03:35:29;;;;;;;0.50;0.50;;;;;;;4.88;82.55;101566.16;5108621;28;20054;-77
2022/10/20 03:37:54;;;;;;;0.60;0.60;;;;;;;4.88;82.83;101557.53;5108612;28;20031;-78
2022/10/20 03:40:20;;;;;;;0.50;0.50;;;;;;;4.95;83.08;101562.09;5108522;28;20019;-76
2022/10/20 03:42:45;;;;;;;0.50;0.50;;;;;;;5.06;82.92;101558.16;5127191;28;20049;-77
2022/10/20 03:45:11;;;;;;;0.40;0.40;;;;;;;5.18;82.89;101572.25;5126792;28;20022;-77
2022/10/20 03:47:36;;;;;;;0.50;0.50;;;;;;;5.15;82.95;101560.16;5108577;28;20287;-76
2022/10/20 03:50:03;;;;;;;0.50;0.50;;;;;;;5.28;82.75;101568.28;5107583;28;20032;-78
2022/10/20 03:52:28;;;;;;;0.50;0.50;;;;;;;5.28;82.54;101568.28;5106182;28;20517;-76
2022/10/20 03:54:53;;;;;;;0.50;0.50;;;;;;;5.26;82.72;101557.94;5125611;28;20023;-76
2022/10/20 03:57:20;;;;;;;0.50;0.50;;;;;;;5.28;82.59;101553.72;5126273;28;20020;-77
2022/10/20 03:59:45;;;;;;;0.47;0.47;;;;;;;5.33;82.44;101564.16;5126665;28;20035;-76
2022/10/20 04:02:30;;;;;;;0.50;0.50;;;;;;;5.38;82.30;101567.78;5126460;28;20123;-77
2022/10/20 04:04:56;;;;;;;0.50;0.50;;;;;;;5.40;82.33;101565.25;5108168;28;20077;-77
2022/10/20 04:07:21;;;;;;;0.50;0.50;;;;;;;5.38;82.08;101562.63;5108033;28;20024;-76
2022/10/20 04:09:46;;;;;;;0.50;0.50;;;;;;;5.37;81.94;101560.84;5108249;28;20115;-77
2022/10/20 04:12:11;;;;;;;0.50;0.50;;;;;;;5.35;81.88;101566.78;5126216;28;20471;-77
2022/10/20 04:14:37;;;;;;;0.82;0.82;;;;;;;5.29;81.77;101562.28;5126306;28;20071;-77
2022/10/20 04:17:02;;;;;;;0.40;0.40;;;;;;;5.31;81.63;101563.22;5108054;28;20518;-78
2022/10/20 04:19:28;;;;;;;0.50;0.50;;;;;;;5.13;81.47;101546.34;5108055;28;20095;-77
2022/10/20 04:21:53;;;;;;;0.50;0.50;;;;;;;5.14;81.33;101545.56;5125875;28;20051;-77
2022/10/20 04:24:18;;;;;;;0.50;0.50;;;;;;;5.17;81.22;101561.09;5126269;28;20115;-77
2022/10/20 04:26:47;;;;;;;0.50;0.50;;;;;;;5.17;80.98;101560.22;5126121;28;20051;-78
2022/10/20 04:29:12;;;;;;;0.50;0.50;;;;;;;5.12;81.11;101552.34;5107771;28;20470;-76
2022/10/20 04:31:37;;;;;;;0.43;0.43;;;;;;;5.08;81.50;101553.03;5126056;28;20034;-78
2022/10/20 04:34:03;;;;;;;0.50;0.50;;;;;;;5.07;81.38;101554.75;5126089;28;20011;-76
2022/10/20 04:36:28;;;;;;;0.50;0.50;;;;;;;5.00;81.55;101549.38;5107566;28;20058;-77
2022/10/20 04:38:53;;;;;;;0.50;0.50;;;;;;;4.85;81.37;101535.16;5090878;28;20035;-77
2022/10/20 04:41:19;;;;;;;0.50;0.50;;;;;;;4.87;81.49;101554.13;5126090;28;20019;-77
2022/10/20 04:43:50;;;;;;;0.50;0.50;;;;;;;4.84;81.83;101551.41;5107876;28;20030;-77
2022/10/20 04:46:16;;;;;;;0.68;0.68;;;;;;;4.73;82.03;101535.59;5107661;28;20054;-81
2022/10/20 04:48:43;;;;;;;0.50;0.50;;;;;;;4.75;81.63;101533.09;5125959;28;20024;-78
2022/10/20 04:51:11;;;;;;;0.50;0.50;;;;;;;4.70;82.26;101546.69;5107257;28;20356;-78
2022/10/20 04:53:36;;;;;;;0.50;0.50;;;;;;;4.71;82.47;101543.28;5126163;28;20023;-79
2022/10/20 04:56:03;;;;;;;0.40;0.40;;;;;;;4.59;82.77;101530.88;5125845;28;20049;-78
2022/10/20 04:58:30;;;;;;;0.45;0.45;;;;;;;4.67;82.96;101548.25;5107634;28;20387;-78
2022/10/20 05:01:07;;;;;;;0.50;0.50;;;;;;;4.71;83.36;101540.69;5107666;28;20019;-80
2022/10/20 05:03:34;;;;;;;0.50;0.50;;;;;;;4.69;83.11;101532.09;5129540;28;20024;-80
2022/10/20 05:06:17;;;;;;;0.50;0.50;;;;;;;4.68;83.32;101542.31;5129949;28;20023;-74
2022/10/20 05:08:46;;;;;;;0.50;0.50;;;;;;;4.58;83.42;101541.97;5111759;28;20026;-74
2022/10/20 05:11:13;;;;;;;0.50;0.50;;;;;;;4.53;83.93;101534.94;5111692;28;20053;-71
2022/10/20 05:13:38;;;;;;;0.50;0.50;;;;;;;4.60;83.98;101542.03;5130053;28;20443;-76
2022/10/20 05:16:04;;;;;;;0.57;0.57;;;;;;;4.56;83.76;101527.31;5129867;28;20080;-77
2022/10/20 05:18:30;;;;;;;0.50;0.50;;;;;;;4.61;83.88;101536.09;5111447;28;20026;-76
2022/10/20 05:20:56;;;;;;;0.50;0.50;;;;;;;4.54;84.24;101523.81;5111490;28;20020;-74
2022/10/20 05:23:21;;;;;;;0.50;0.50;;;;;;;4.58;84.04;101526.53;5129497;28;20044;-75
2022/10/20 05:25:47;;;;;;;0.50;0.50;;;;;;;4.61;83.79;101524.91;5094306;28;20125;-73
2022/10/20 05:28:12;;;;;;;0.50;0.50;;;;;;;4.58;83.94;101513.69;5111010;28;20041;-75
2022/10/20 05:30:37;;;;;;;0.43;0.43;;;;;;;4.56;83.94;101515.34;5129494;28;20035;-75
2022/10/20 05:33:03;;;;;;;0.50;0.50;;;;;;;4.57;83.81;101518.78;5111269;28;20053;-75
2022/10/20 05:35:29;;;;;;;0.50;0.50;;;;;;;4.54;84.15;101513.53;5129629;28;20016;-76
2022/10/20 05:37:55;;;;;;;4.28;4.00;;;;;;;4.54;84.29;101526.38;5110994;28;20026;-76
2022/10/20 05:40:21;;;;;;;0.50;0.50;;;;;;;4.53;84.61;101522.06;5129408;28;20087;-75
2022/10/20 05:42:50;;;;;;;0.50;0.50;;;;;;;4.51;84.60;101514.31;5129393;28;20036;-76
2022/10/20 05:45:15;;;;;;;0.50;0.50;;;;;;;4.52;84.55;101521.19;5110846;28;20023;-76
2022/10/20 05:47:44;;;;;;;0.50;0.50;;;;;;;4.64;84.57;101520.75;5110962;28;20028;-76
2022/10/20 05:50:10;;;;;;;0.50;0.50;;;;;;;4.71;84.70;101520.13;5128862;28;20028;-77
2022/10/20 05:52:35;;;;;;;0.50;0.50;;;;;;;4.71;84.50;101503.84;5128810;28;20020;-77
2022/10/20 05:55:02;;;;;;;0.40;0.40;;;;;;;4.74;84.49;101503.94;5128672;28;20430;-76
2022/10/20 05:57:27;;;;;;;0.50;0.50;;;;;;;4.80;84.55;101505.81;5110613;28;20015;-77
2022/10/20 05:59:53;;;;;;;0.50;0.50;;;;;;;4.83;84.68;101511.06;5128961;28;20080;-77
2022/10/20 06:02:18;;;;;;;0.50;0.50;;;;;;;4.79;84.90;101502.38;5129033;28;20031;-78
2022/10/20 06:04:44;;;;;;;0.50;0.50;;;;;;;4.87;84.71;101506.91;5110423;28;20020;-78
2022/10/20 06:07:09;;;;;;;0.40;0.40;;;;;;;4.81;84.88;101499.84;5128831;28;20039;-77
2022/10/20 06:09:35;;;;;;;0.50;0.50;;;;;;;4.81;84.96;101498.16;5110637;28;20069;-77
2022/10/20 06:12:01;;;;;;;3.25;3.05;;;;;;;4.79;84.81;101501.50;5109896;28;20066;-77
2022/10/20 06:14:26;;;;;;;0.50;0.50;;;;;;;4.69;84.80;101493.50;5109353;28;20015;-77
2022/10/20 06:16:53;;;;;;;10.70;3.10;;;;;;;4.73;84.78;101501.31;5129021;28;20098;-77
2022/10/20 06:19:19;;;;;;;0.50;0.50;;;;;;;4.71;84.68;101507.25;5110333;28;20028;-77
2022/10/20 06:21:45;;;;;;;0.50;0.50;;;;;;;4.66;85.06;101498.53;5128237;28;20050;-78
2022/10/20 06:24:11;;;;;;;0.65;0.65;;;;;;;4.58;85.14;101485.38;5128610;28;20032;-78
2022/10/20 06:26:37;;;;;;;0.50;0.50;;;;;;;4.66;85.42;101501.09;5110293;28;20016;-78
2022/10/20 06:29:09;;;;;;;0.45;0.45;;;;;;;4.66;85.26;101488.25;5110429;28;20043;-78
2022/10/20 06:31:49;;;;;;;0.60;0.60;;;;;;;4.75;85.74;101497.06;5128485;28;20024;-80
2022/10/20 06:34:17;;;;;;;0.40;0.40;;;;;;;4.73;85.49;101501.31;5128598;28;20112;-77
2022/10/20 06:36:43;;;;;;;0.50;0.50;;;;;;;4.76;85.93;101503.97;5109970;28;20027;-78
2022/10/20 06:39:12;;;;;;;0.50;0.50;;;;;;;4.86;85.29;101498.31;5110086;28;20359;-78
2022/10/20 06:41:38;;;;;;;0.50;0.50;;;;;;;4.76;85.76;101486.81;5128423;28;20023;-77
2022/10/20 06:44:03;;;;;;;0.50;0.50;;;;;;;4.80;86.18;101490.38;5110138;28;20356;-78
2022/10/20 06:46:31;;;;;;;0.50;0.50;;;;;;;5.19;86.62;101504.50;5110009;28;20398;-78
2022/10/20 06:49:02;;;;;;;0.50;0.50;;;;;;;5.72;85.82;101494.91;5110314;28;20039;-77
2022/10/20 06:51:28;;;;;;;0.50;0.50;;;;;;;6.20;85.65;101492.00;5128072;28;20027;-76
2022/10/20 06:53:54;;;;;;;0.40;0.40;;;;;;;6.54;85.01;101491.16;5109787;28;20084;-76
2022/10/20 06:56:22;;;;;;;0.50;0.50;;;;;;;6.99;84.68;101501.72;5109841;28;20043;-75
2022/10/20 06:58:50;;;;;;;0.40;0.40;;;;;;;7.30;83.11;101485.22;5128099;28;20064;-76
2022/10/20 07:01:23;;;;;;;0.40;0.40;;;;;;;7.48;82.15;101493.34;5109689;28;20023;-74
2022/10/20 07:03:52;;;;;;;0.50;0.50;;;;;;;7.60;82.05;101485.88;5127965;28;20023;-74
2022/10/20 07:06:27;;;;;;;0.40;0.40;;;;;;;7.99;81.06;101489.22;5127960;28;20028;-76
2022/10/20 07:08:55;;;;;;;0.45;0.45;;;;;;;7.99;81.42;101493.53;5127943;28;20044;-74
2022/10/20 07:11:23;;;;;;;0.43;0.43;;;;;;;8.28;81.45;101491.50;5109407;28;20023;-75
2022/10/20 07:13:49;;;;;;;0.60;0.60;;;;;;;8.58;80.35;101489.47;5109128;28;20028;-74
2022/10/20 07:16:17;;;;;;;0.40;0.40;;;;;;;8.76;80.38;101493.22;5109097;28;20053;-75
2022/10/20 07:18:43;;;;;;;0.50;0.50;;;;;;;8.92;78.10;101490.06;5127701;28;20043;-75
2022/10/20 07:21:13;;;;;;;0.50;0.50;;;;;;;8.88;76.67;101487.38;5109052;28;20026;-75
2022/10/20 07:23:41;;;;;;;0.50;0.50;;;;;;;8.98;75.94;101493.59;5109186;28;20031;-76
2022/10/20 07:26:12;;;;;;;0.45;0.45;;;;;;;9.01;74.23;101498.81;5107632;28;20031;-77
2022/10/20 07:28:41;;;;;;;0.40;0.40;;;;;;;8.87;73.30;101488.22;5126346;28;20038;-77
2022/10/20 07:31:12;;;;;;;0.40;0.40;;;;;;;8.82;72.80;101488.16;5108945;28;20020;-76
2022/10/20 07:33:37;;;;;;;0.50;0.50;;;;;;;8.61;73.32;101499.88;5109066;28;20023;-76
2022/10/20 07:36:30;;;;;;;0.43;0.43;;;;;;;8.52;73.78;101497.09;5109071;28;20402;-75
2022/10/20 07:38:57;;;;;;;0.47;0.47;;;;;;;8.68;74.45;101495.69;5121010;28;20502;-74
2022/10/20 07:41:24;;;;;;;0.40;0.40;;;;;;;8.88;73.98;101508.97;5126947;28;20087;-74
2022/10/20 07:43:50;;;;;;;0.60;0.60;;;;;;;9.16;72.32;101509.41;5127029;28;20049;-74
2022/10/20 07:46:16;;;;;;;0.50;0.50;;;;;;;9.28;71.54;101507.88;5127067;28;20019;-75
2022/10/20 07:48:41;;;;;;;0.43;0.43;;;;;;;9.55;69.95;101509.09;5127069;28;20026;-75
2022/10/20 07:51:25;;;;;;;0.50;0.50;;;;;;;9.69;69.92;101516.19;5108418;28;20063;-74
2022/10/20 07:54:02;;;;;;;0.50;0.50;;;;;;;10.21;69.60;101512.50;5127086;28;20079;-74
2022/10/20 07:56:30;;;;;;;0.40;0.40;;;;;;;10.65;67.73;101519.84;5127023;28;20020;-74
2022/10/20 07:58:56;;;;;;;0.40;0.40;;;;;;;11.03;67.65;101509.78;5125916;28;20052;-74
2022/10/20 08:01:21;;;;;;;0.40;0.40;;;;;;;11.38;65.73;101506.56;5126814;28;20151;-75
2022/10/20 08:03:47;;;;;;;0.40;0.40;;;;;;;11.68;65.94;101503.25;5108476;28;20027;-75
2022/10/20 08:06:12;;;;;;;0.40;0.40;;;;;;;12.28;65.59;101502.63;5108299;28;20015;-75
2022/10/20 08:08:38;;;;;;;0.50;0.50;;;;;;;12.78;63.57;101505.25;5126175;28;20128;-75
2022/10/20 08:11:04;;;;;;;0.40;0.40;;;;;;;13.02;60.60;101513.94;5126628;28;20077;-74
2022/10/20 08:13:29;;;;;;;0.40;0.40;;;;;;;12.86;61.43;101506.13;5108370;28;20077;-73
2022/10/20 08:15:55;;;;;;;0.40;0.40;;;;;;;13.22;62.29;101508.72;5126780;28;20020;-75
2022/10/20 08:18:21;;;;;;;0.40;0.40;;;;;;;13.92;59.13;101507.66;5126459;28;20030;-75
2022/10/20 08:20:46;;;;;;;0.40;0.40;;;;;;;13.95;58.74;101501.53;5108339;28;20030;-73
2022/10/20 08:23:12;;;;;;;0.30;0.30;;;;;;;13.93;58.21;101504.16;5126146;28;20054;-74
2022/10/20 08:25:38;;;;;;;0.40;0.40;;;;;;;13.99;56.96;101498.03;5126326;28;20027;-74
2022/10/20 08:28:03;;;;;;;0.50;0.50;;;;;;;13.98;56.91;101488.47;5108088;28;20034;-74
2022/10/20 08:30:29;;;;;;;1.02;1.02;;;;;;;13.91;56.25;101487.66;5107993;28;20114;-73
2022/10/20 08:32:54;;;;;;;0.40;0.40;;;;;;;13.86;56.76;101490.28;5107945;28;20020;-73
2022/10/20 08:35:21;;;;;;;0.40;0.40;;;;;;;14.15;56.96;101490.13;5126426;28;20073;-75
2022/10/20 08:37:46;;;;;;;0.52;0.52;;;;;;;14.18;55.37;101485.75;5107280;28;20034;-74
2022/10/20 08:40:29;;;;;;;0.40;0.40;;;;;;;14.09;54.16;101489.28;5126304;28;20023;-74
2022/10/20 08:42:55;;;;;;;0.40;0.40;;;;;;;13.83;55.07;101484.19;5107763;28;20020;-75
2022/10/20 08:45:24;;;;;;;0.30;0.30;;;;;;;13.74;57.21;101485.09;5126154;28;20034;-74
2022/10/20 08:47:52;;;;;;;0.40;0.40;;;;;;;13.99;57.17;101488.44;5091115;28;20562;-74
2022/10/20 08:50:20;;;;;;;0.43;0.43;;;;;;;14.54;57.95;101480.28;5107753;28;20027;-74
2022/10/20 08:52:48;;;;;;;0.30;0.30;;;;;;;14.97;58.29;101492.13;5125945;28;20024;-74
2022/10/20 08:55:26;;;;;;;0.30;0.30;;;;;;;15.59;58.54;101487.13;5126274;28;20023;-73
2022/10/20 08:57:55;;;;;;;0.20;0.20;;;;;;;15.97;57.55;101482.28;5107759;28;20087;-73
2022/10/20 09:00:22;;;;;;;0.30;0.30;;;;;;;16.52;57.47;101484.16;5125836;28;20106;-74
2022/10/20 09:02:49;;;;;;;0.38;0.38;;;;;;;16.66;57.96;101486.53;5126168;28;20028;-74
2022/10/20 09:05:18;;;;;;;0.30;0.30;;;;;;;16.88;56.41;101478.28;5125792;28;20027;-74
2022/10/20 09:07:44;;;;;;;0.20;0.20;;;;;;;16.62;54.98;101475.22;5126055;28;20020;-73
2022/10/20 09:10:27;;;;;;;0.30;0.30;;;;;;;16.68;57.57;101482.09;5124539;28;20030;-73
2022/10/20 09:12:53;;;;;;;0.28;0.28;;;;;;;17.10;57.10;101489.28;5107648;28;20055;-74
2022/10/20 09:15:20;;;;;;;0.20;0.20;;;;;;;17.43;54.22;101484.28;5106179;28;20046;-73
2022/10/20 09:17:49;;;;;;;0.20;0.20;;;;;;;18.04;51.29;101480.38;5125666;28;20034;-74
2022/10/20 09:20:24;;;;;;;0.20;0.20;;;;;;;17.51;49.25;101470.16;5124054;28;20081;-74
2022/10/20 09:22:50;;;;;;;0.30;0.30;;;;;;;17.17;48.59;101474.31;5102309;28;20054;-75
2022/10/20 09:25:18;;;;;;;4.45;2.05;;;;;;;16.57;48.84;101467.44;5103821;28;20086;-74
2022/10/20 09:27:45;;;;;;;0.20;0.20;;;;;;;16.32;48.79;101467.84;5105412;28;20028;-73
2022/10/20 09:30:13;;;;;;;0.30;0.30;;;;;;;16.02;48.02;101475.28;5105101;28;20351;-74
2022/10/20 09:32:39;;;;;;;0.30;0.30;;;;;;;15.78;48.84;101460.72;5105430;28;20032;-74
2022/10/20 09:35:16;;;;;;;0.30;0.30;;;;;;;15.79;49.24;101465.06;5104142;28;20016;-74
2022/10/20 09:37:46;;;;;;;0.50;0.50;;;;;;;15.82;47.69;101458.03;5105206;28;20027;-75
2022/10/20 09:40:16;;;;;;;0.30;0.30;;;;;;;15.55;47.92;101467.09;5105321;28;20335;-75
2022/10/20 09:42:49;;;;;;;0.30;0.30;;;;;;;15.46;48.44;101466.31;5105317;28;20042;-74
2022/10/20 09:45:14;;;;;;;0.30;0.30;;;;;;;15.79;48.64;101468.56;5105250;28;20039;-73
2022/10/20 09:47:44;;;;;;;0.30;0.30;;;;;;;16.50;49.13;101464.94;5103985;28;20028;-74
2022/10/20 09:50:37;;;;;;;0.30;0.30;;;;;;;17.50;45.71;101453.53;5105200;28;20479;-74
2022/10/20 09:53:06;;;;;;;0.30;0.30;;;;;;;18.04;43.02;101451.47;5107440;28;20402;-75
2022/10/20 09:55:36;;;;;;;0.30;0.30;;;;;;;18.08;42.06;101465.41;5108875;28;20027;-75
2022/10/20 09:58:03;;;;;;;0.30;0.30;;;;;;;18.05;41.96;101447.94;5108805;28;20032;-74
2022/10/20 10:00:44;;;;;;;0.30;0.30;;;;;;;18.25;42.58;101453.66;5107379;28;20031;-74
2022/10/20 10:03:20;;;;;;;0.30;0.30;;;;;;;18.72;41.34;101456.03;5108840;28;20563;-74
2022/10/20 10:05:53;;;;;;;0.30;0.30;;;;;;;18.98;39.60;101457.06;5107614;28;20024;-74
2022/10/20 10:08:20;;;;;;;0.30;0.30;;;;;;;19.05;39.93;101448.13;5107122;28;20024;-74
2022/10/20 10:11:01;;;;;;;0.30;0.30;;;;;;;18.80;39.40;101440.88;5108436;28;20034;-75
2022/10/20 10:13:30;;;;;;;1.15;1.15;;;;;;;18.69;41.41;101448.22;5107357;28;20020;-74
2022/10/20 10:16:05;;;;;;;0.30;0.30;;;;;;;19.28;42.35;101438.72;5107190;28;20035;-74
2022/10/20 10:18:30;;;;;;;0.30;0.30;;;;;;;19.41;38.33;101433.13;5107115;28;20027;-76
2022/10/20 10:21:02;;;;;;;0.30;0.30;;;;;;;18.61;40.72;101437.03;5108442;28;20024;-74
2022/10/20 10:23:30;;;;;;;0.40;0.40;;;;;;;18.35;38.44;101433.28;5126411;28;20066;-75
2022/10/20 10:25:56;;;;;;;0.30;0.30;;;;;;;17.46;40.00;101415.97;5128774;28;20035;-74
2022/10/20 10:28:37;;;;;;;0.30;0.30;;;;;;;17.03;39.99;101415.03;5128938;28;20047;-75
2022/10/20 10:31:20;;;;;;;0.30;0.30;;;;;;;16.24;40.40;101425.16;5128837;28;20099;-76
2022/10/20 10:33:47;;;;;;;0.40;0.40;;;;;;;15.62;42.90;101416.44;5110452;28;20026;-75
2022/10/20 10:36:34;;;;;;;7.22;3.70;;;;;;;16.07;43.00;101418.44;5128654;28;20019;-75
2022/10/20 10:39:01;;;;;;;0.30;0.30;;;;;;;16.41;42.83;101410.91;5128554;28;20399;-75
2022/10/20 10:41:42;;;;;;;0.30;0.30;;;;;;;16.89;41.97;101417.06;5128420;28;20042;-74
2022/10/20 10:44:32;;;;;;;0.88;0.80;;;;;;;17.25;41.36;101421.66;5109967;28;20032;-74
2022/10/20 10:47:20;;;;;;;0.40;0.40;;;;;;;17.18;38.66;101413.94;5128270;28;20036;-75
2022/10/20 10:50:04;;;;;;;0.30;0.30;;;;;;;16.61;38.60;101410.59;5128429;28;20489;-75
2022/10/20 10:52:50;;;;;;;0.30;0.30;;;;;;;16.20;40.06;101419.09;5109682;28;20095;-74
2022/10/20 10:55:31;;;;;;;0.30;0.30;;;;;;;16.42;38.82;101407.41;5128192;28;20041;-74
2022/10/20 10:58:29;;;;;;;0.40;0.40;;;;;;;16.56;38.18;101418.53;5109970;28;20034;-75
2022/10/20 11:01:21;;;;;;;0.30;0.30;;;;;;;16.10;38.35;101417.53;5109219;28;20024;-74
2022/10/20 11:03:53;;;;;;;;;;;;;;;15.89;40.05;101413.44;5110475;28;20035;-75
2022/10/20 11:06:43;;;;;;;0.30;0.30;;;;;;;16.58;39.40;101413.25;5128038;28;19946;-74
2022/10/20 11:09:20;;;;;;;0.30;0.30;;;;;;;17.07;37.59;101393.13;5127841;28;20039;-76
2022/10/20 11:11:58;;;;;;;0.30;0.30;;;;;;;17.14;37.47;101396.50;5109363;28;20024;-74
2022/10/20 11:14:41;;;;;;;0.30;0.30;;;;;;;17.10;36.91;101397.47;5127770;28;20026;-75
2022/10/20 11:17:09;;;;;;;0.30;0.30;;;;;;;16.72;37.91;101390.25;5127573;28;20023;-75
2022/10/20 11:19:50;;;;;;;0.30;0.30;;;;;;;16.35;37.45;101396.16;5109230;28;20023;-75
2022/10/20 11:22:54;;;;;;;0.47;0.47;;;;;;;15.81;39.56;101383.00;5127062;28;20430;-75
2022/10/20 11:25:31;;;;;;;0.30;0.30;;;;;;;16.07;38.22;101378.28;5127545;28;20034;-77
2022/10/20 11:27:57;;;;;;;0.47;0.47;;;;;;;15.01;39.49;101367.47;5126725;28;20019;-76
2022/10/20 11:30:26;;;;;;;0.40;0.40;;;;;;;13.68;41.22;101367.69;5125219;28;20391;-75
2022/10/20 11:33:03;;;;;;;0.30;0.30;;;;;;;12.44;43.97;101375.03;5108436;28;20510;-76
2022/10/20 11:35:37;;;;;;;0.40;0.40;;;;;;;11.62;45.24;101356.69;5109084;28;20043;-75
2022/10/20 11:38:21;;;;;;;0.40;0.40;;;;;;;11.08;47.43;101367.78;5126994;28;20023;-75
2022/10/20 11:41:11;;;;;;;0.40;0.40;;;;;;;10.88;47.51;101376.31;5108881;28;20020;-76
2022/10/20 11:43:57;;;;;;;0.50;0.50;;;;;;;10.37;49.09;101371.59;5126968;28;20038;-75